YM Jupiter — 9HTF8 — position and weather

sailwx.info

Track history (hours):
 
Tides and Currents Weather Stations Pressure Air Temp Water Temp Dewpoint Dewpoint Depression Visibility Wind Speed Wind Dir Waves Ship Positions

YM Jupiter

Last reported at 2018-May-29 20:54 UTC. Time now 2018-Jun-18 17:19 UTC.
Position N 21°41' E 066°37'.
Warning: this ship's position is 19 days out of date.

Length 148 m; draft 7.6 m.

Type: Ship (hazmat cat B). MMSI: 256398000.

Date/timePositionNaut miles runAvg speedWind from/ knotsBaromVisibWave heightAir tempDewpointWater temp
2018-May-29 20:54N 21°41' E 066°37'2011.5
2018-May-29 19:10N 21°51' E 066°19'211.2
2018-May-29 18:59N 21°52' E 066°17'511.3
2018-May-29 18:30N 21°55' E 066°12'711.5
2018-May-29 17:53N 21°59' E 066°06'411.9
2018-May-29 17:31N 22°01' E 066°01'611.9
2018-May-29 17:01N 22°04' E 065°56'712.0
2018-May-29 16:25N 22°08' E 065°49'712.4
2018-May-29 15:51N 22°12' E 065°43'22912.2
2018-May-28 20:58N 23°41' E 061°53'1612.7
2018-May-28 19:43N 23°47' E 061°37'712.6
2018-May-28 19:12N 23°49' E 061°30'  
Track history (hours):
 
Tides and Currents Weather Stations Pressure Air Temp Water Temp Dewpoint Dewpoint Depression Visibility Wind Speed Wind Dir Waves Ship Positions

YM Jupiter

Last reported at 2018-May-29 20:54 UTC. Time now 2018-Jun-18 17:19 UTC.
Position N 21°41' E 066°37'.
Warning: this ship's position is 19 days out of date.

Length 148 m; draft 7.6 m.

Type: Ship (hazmat cat B). MMSI: 256398000.

Date/timePositionNaut miles runAvg speedWind from/ knotsBaromVisibWave heightAir tempDewpointWater temp
2018-May-29 20:54N 21°41' E 066°37'2011.5
2018-May-29 19:10N 21°51' E 066°19'211.2
2018-May-29 18:59N 21°52' E 066°17'511.3
2018-May-29 18:30N 21°55' E 066°12'711.5
2018-May-29 17:53N 21°59' E 066°06'411.9
2018-May-29 17:31N 22°01' E 066°01'611.9
2018-May-29 17:01N 22°04' E 065°56'712.0
2018-May-29 16:25N 22°08' E 065°49'712.4
2018-May-29 15:51N 22°12' E 065°43'22912.2
2018-May-28 20:58N 23°41' E 061°53'1612.7
2018-May-28 19:43N 23°47' E 061°37'712.6
2018-May-28 19:12N 23°49' E 061°30'  

Dump ship's entire track history